createdAt,value
2017-07-12T00:02:26.321Z,84.20
2017-07-12T00:04:54.565Z,84.40
2017-07-12T00:07:22.770Z,84.40
2017-07-12T00:09:51.143Z,84.70
2017-07-12T00:12:19.419Z,84.40
2017-07-12T00:14:48.383Z,84.70
2017-07-12T00:17:16.587Z,84.70
2017-07-12T00:19:45.556Z,84.60
2017-07-12T00:22:13.768Z,84.60
2017-07-12T00:24:42.050Z,84.50
2017-07-12T00:27:10.265Z,84.40
2017-07-12T00:29:38.464Z,84.10
2017-07-12T00:32:06.683Z,83.90
2017-07-12T00:34:34.882Z,83.80
2017-07-12T00:37:03.126Z,83.70
2017-07-12T00:39:31.381Z,84.00
2017-07-12T00:41:59.812Z,84.40
2017-07-12T00:44:28.032Z,84.20
2017-07-12T00:46:56.330Z,84.20
2017-07-12T00:49:25.330Z,84.40
2017-07-12T00:51:53.565Z,84.30
2017-07-12T00:54:21.766Z,84.40
2017-07-12T00:56:50.844Z,84.60
2017-07-12T00:59:19.978Z,85.20
2017-07-12T01:01:48.190Z,85.00
2017-07-12T01:04:16.398Z,84.90
2017-07-12T01:06:44.635Z,84.70
2017-07-12T01:09:12.840Z,84.60
2017-07-12T01:11:41.145Z,84.10
2017-07-12T01:14:10.128Z,84.40
2017-07-12T01:16:38.319Z,84.30
2017-07-12T01:19:06.628Z,84.40
2017-07-12T01:21:34.829Z,84.20
2017-07-12T01:24:03.033Z,84.00
2017-07-12T01:26:31.262Z,83.80
2017-07-12T01:28:59.482Z,83.90
2017-07-12T01:31:27.765Z,84.30
2017-07-12T01:33:56.736Z,84.50
2017-07-12T01:36:24.942Z,84.40
2017-07-12T01:38:53.246Z,84.50
2017-07-12T01:41:21.455Z,84.90
2017-07-12T01:43:49.668Z,84.80
2017-07-12T01:46:17.946Z,84.80
2017-07-12T01:48:46.139Z,84.40
2017-07-12T01:51:14.357Z,84.10
2017-07-12T01:53:42.614Z,84.40
2017-07-12T01:56:10.829Z,84.30
2017-07-12T01:58:39.020Z,84.60
2017-07-12T02:01:07.229Z,84.50
2017-07-12T02:03:35.431Z,84.80
2017-07-12T02:06:03.651Z,84.90
2017-07-12T02:08:31.867Z,84.80
2017-07-12T02:11:00.071Z,84.60
2017-07-12T02:13:28.278Z,84.10
2017-07-12T02:15:56.499Z,83.90
2017-07-12T02:18:24.743Z,84.10
2017-07-12T02:20:52.947Z,84.40
2017-07-12T02:23:21.201Z,84.60
2017-07-12T02:25:50.241Z,84.80
2017-07-12T02:28:18.455Z,84.80
2017-07-12T02:30:46.671Z,84.90
2017-07-12T02:33:14.936Z,84.80
2017-07-12T02:35:43.222Z,84.40
2017-07-12T02:38:11.703Z,84.20
2017-07-12T02:40:39.966Z,84.00
2017-07-12T02:43:09.063Z,83.70
2017-07-12T02:45:38.022Z,84.90
2017-07-12T02:48:06.238Z,84.20
2017-07-12T02:50:35.212Z,84.80
2017-07-12T02:53:03.440Z,84.70
2017-07-12T02:55:31.635Z,84.60
2017-07-12T02:57:59.965Z,84.90
2017-07-12T03:00:28.939Z,84.10
2017-07-12T03:02:57.147Z,84.10
2017-07-12T03:05:25.361Z,84.00
2017-07-12T03:07:53.558Z,84.00
2017-07-12T03:10:21.761Z,84.40
2017-07-12T03:12:50.741Z,84.70
2017-07-12T03:15:18.967Z,84.70
2017-07-12T03:17:47.186Z,85.00
2017-07-12T03:20:15.378Z,84.70
2017-07-12T03:22:43.763Z,84.80
2017-07-12T03:25:11.982Z,84.80
2017-07-12T03:27:40.195Z,84.60
2017-07-12T03:30:08.398Z,84.80
2017-07-12T03:32:36.608Z,85.10
2017-07-12T03:35:04.814Z,85.20
2017-07-12T03:37:33.027Z,85.40
2017-07-12T03:40:01.235Z,85.50
2017-07-12T03:42:29.428Z,85.70
2017-07-12T03:44:57.642Z,85.90
2017-07-12T03:47:26.742Z,86.60
2017-07-12T03:49:55.022Z,85.80
2017-07-12T03:52:24.004Z,85.00
2017-07-12T03:54:52.396Z,85.00
2017-07-12T03:57:20.691Z,84.90
2017-07-12T03:59:48.917Z,85.00
2017-07-12T04:02:17.226Z,85.10
2017-07-12T04:04:46.327Z,85.30
2017-07-12T04:07:14.803Z,85.30
2017-07-12T04:09:43.901Z,85.50
2017-07-12T04:12:12.887Z,85.30
2017-07-12T04:14:41.287Z,85.30
2017-07-12T04:17:09.493Z,85.30
2017-07-12T04:19:37.705Z,85.10
2017-07-12T04:22:05.919Z,85.10
2017-07-12T04:24:34.119Z,84.50
2017-07-12T04:27:02.459Z,84.60
2017-07-12T04:29:31.436Z,85.40
2017-07-12T04:31:59.653Z,85.40
2017-07-12T04:34:27.865Z,85.10
2017-07-12T04:36:56.063Z,84.70
2017-07-12T04:39:24.267Z,84.60
2017-07-12T04:41:52.493Z,84.00
2017-07-12T04:44:20.691Z,84.00
2017-07-12T04:46:48.894Z,82.90
2017-07-12T04:49:17.246Z,81.90
2017-07-12T04:51:45.449Z,81.50
2017-07-12T04:54:13.717Z,81.90
2017-07-12T04:56:42.698Z,82.70
2017-07-12T04:59:10.916Z,82.70
2017-07-12T05:01:39.193Z,83.10
2017-07-12T05:04:07.386Z,83.70
2017-07-12T05:06:35.590Z,84.00
2017-07-12T05:09:03.795Z,83.70
2017-07-12T05:11:32.778Z,83.90
2017-07-12T05:14:00.983Z,83.80
2017-07-12T05:16:29.205Z,82.90
2017-07-12T05:18:57.404Z,81.80
2017-07-12T05:21:25.796Z,81.70
2017-07-12T05:23:54.768Z,80.30
2017-07-12T05:26:22.966Z,80.30
2017-07-12T05:28:52.056Z,78.90
2017-07-12T05:31:21.018Z,78.00
2017-07-12T05:33:49.230Z,78.00
2017-07-12T05:36:17.508Z,78.10
2017-07-12T05:38:46.027Z,78.40
2017-07-12T05:41:14.266Z,79.00
2017-07-12T05:43:42.551Z,79.60
2017-07-12T05:46:11.524Z,80.40
2017-07-12T05:48:39.728Z,80.40
2017-07-12T05:51:08.004Z,79.50
2017-07-12T05:53:36.203Z,77.70
2017-07-12T05:56:04.407Z,76.10
2017-07-12T05:58:32.631Z,75.90
2017-07-12T06:01:00.831Z,75.80
2017-07-12T06:03:29.051Z,75.80
2017-07-12T06:05:57.262Z,76.40
2017-07-12T06:08:25.522Z,78.10
2017-07-12T06:10:53.812Z,78.30
2017-07-12T06:13:22.015Z,77.70
2017-07-12T06:15:50.230Z,78.30
2017-07-12T06:18:18.434Z,78.20
2017-07-12T06:20:46.718Z,79.50
2017-07-12T06:23:15.688Z,82.10
2017-07-12T06:25:43.910Z,82.10
2017-07-12T06:28:12.152Z,82.60
2017-07-12T06:30:41.123Z,80.50
2017-07-12T06:33:09.418Z,80.50
2017-07-12T06:35:37.673Z,81.20
2017-07-12T06:38:05.970Z,79.70
2017-07-12T06:40:34.135Z,80.40
2017-07-12T06:43:02.435Z,81.20
2017-07-12T06:45:31.409Z,80.30
2017-07-12T06:47:59.627Z,80.30
2017-07-12T06:50:27.873Z,80.00
2017-07-12T06:52:56.866Z,81.20
2017-07-12T06:55:25.081Z,80.40
2017-07-12T06:57:53.332Z,81.10
2017-07-12T07:00:22.435Z,81.90
2017-07-12T07:02:51.400Z,82.30
2017-07-12T07:05:19.607Z,82.30
2017-07-12T07:07:48.579Z,82.40
2017-07-12T07:10:16.795Z,82.40
2017-07-12T07:12:45.051Z,83.00
2017-07-12T07:15:13.322Z,83.20
2017-07-12T07:17:42.422Z,81.90
2017-07-12T07:20:10.723Z,81.90
2017-07-12T07:22:38.918Z,82.70
2017-07-12T07:25:07.134Z,82.50
2017-07-12T07:27:35.346Z,82.00
2017-07-12T07:30:03.590Z,82.50
2017-07-12T07:32:32.584Z,83.00
2017-07-12T07:35:00.808Z,83.00
2017-07-12T07:37:29.261Z,82.90
2017-07-12T07:39:57.579Z,83.30
2017-07-12T07:42:25.820Z,82.90
2017-07-12T07:44:54.789Z,82.90
2017-07-12T07:47:22.984Z,82.70
2017-07-12T07:49:51.197Z,82.60
2017-07-12T07:52:19.556Z,84.00
2017-07-12T07:54:47.912Z,83.30
2017-07-12T07:57:16.118Z,83.20
2017-07-12T07:59:44.378Z,83.80
2017-07-12T08:02:12.587Z,83.50
2017-07-12T08:04:40.811Z,83.30
2017-07-12T08:07:09.014Z,83.30
2017-07-12T08:09:37.238Z,84.30
2017-07-12T08:12:05.473Z,85.60
2017-07-12T08:14:33.691Z,84.40
2017-07-12T08:17:01.921Z,85.70
2017-07-12T08:19:30.238Z,86.20
2017-07-12T08:21:58.513Z,84.20
2017-07-12T08:24:26.740Z,85.60
2017-07-12T08:26:55.841Z,85.60
2017-07-12T08:29:24.057Z,85.60
2017-07-12T08:31:52.272Z,85.10
2017-07-12T08:34:20.471Z,85.60
2017-07-12T08:36:48.712Z,85.30
2017-07-12T08:39:16.910Z,84.80
2017-07-12T08:41:45.323Z,85.50
2017-07-12T08:44:13.610Z,86.40
2017-07-12T08:46:41.855Z,85.70
2017-07-12T08:49:11.062Z,84.90
2017-07-12T08:51:39.259Z,84.90
2017-07-12T08:54:07.484Z,84.90
2017-07-12T08:56:35.686Z,84.60
2017-07-12T08:59:03.890Z,84.90
2017-07-12T09:01:32.126Z,85.10
2017-07-12T09:04:01.117Z,86.50
2017-07-12T09:06:29.329Z,86.50
2017-07-12T09:08:57.525Z,85.40
2017-07-12T09:11:25.755Z,85.90
2017-07-12T09:13:53.946Z,85.80
2017-07-12T09:16:22.222Z,85.60
2017-07-12T09:18:50.478Z,85.20
2017-07-12T09:21:18.765Z,85.50
2017-07-12T09:23:47.046Z,85.40
2017-07-12T09:33:40.138Z,85.40
2017-07-12T09:36:09.123Z,84.70
2017-07-12T09:38:37.528Z,84.70
2017-07-12T09:41:06.497Z,84.30
2017-07-12T09:43:34.733Z,84.20
2017-07-12T09:46:02.958Z,84.30
2017-07-12T09:48:31.332Z,84.10
2017-07-12T09:50:59.508Z,84.20
2017-07-12T09:53:28.507Z,84.70
2017-07-12T09:55:56.698Z,84.80
2017-07-12T09:58:24.986Z,83.90
2017-07-12T10:00:53.221Z,83.40
2017-07-12T10:03:21.456Z,83.90
2017-07-12T10:05:49.652Z,82.80
2017-07-12T10:08:17.864Z,81.30
2017-07-12T10:10:46.837Z,81.60
2017-07-12T10:13:15.084Z,81.60
2017-07-12T10:15:43.284Z,81.70
2017-07-12T10:18:11.606Z,81.30
2017-07-12T10:20:40.694Z,79.30
2017-07-12T10:23:09.675Z,77.80
2017-07-12T10:25:38.075Z,77.80
2017-07-12T10:28:07.060Z,78.40
2017-07-12T10:30:35.277Z,78.20
2017-07-12T10:33:03.494Z,78.20
2017-07-12T10:35:31.699Z,78.60
2017-07-12T10:38:00.679Z,79.30
2017-07-12T10:40:29.648Z,80.20
2017-07-12T10:42:57.919Z,79.50
2017-07-12T10:45:26.122Z,80.10
2017-07-12T10:47:55.098Z,81.80
2017-07-12T10:50:23.328Z,81.20
2017-07-12T10:52:52.274Z,81.70
2017-07-12T10:55:20.476Z,81.70
2017-07-12T10:57:49.673Z,80.80
2017-07-12T11:00:17.902Z,80.70
2017-07-12T11:02:46.093Z,80.90
2017-07-12T11:05:14.321Z,81.20
2017-07-12T11:07:42.534Z,81.60
2017-07-12T11:10:10.773Z,83.00
2017-07-12T11:12:38.964Z,82.60
2017-07-12T11:15:07.165Z,83.50
2017-07-12T11:17:35.484Z,82.70
2017-07-12T11:20:03.692Z,79.50
2017-07-12T11:22:31.945Z,78.20
2017-07-12T11:25:00.245Z,78.70
2017-07-12T11:27:28.497Z,78.00
2017-07-12T11:29:56.772Z,79.30
2017-07-12T11:32:25.267Z,79.20
2017-07-12T11:34:53.540Z,79.60
2017-07-12T11:37:21.747Z,80.30
2017-07-12T11:39:49.966Z,78.80
2017-07-12T11:42:18.361Z,79.40
2017-07-12T11:44:46.727Z,80.10
2017-07-12T11:47:14.974Z,78.80
2017-07-12T11:49:43.173Z,79.30
2017-07-12T11:52:11.495Z,78.40
2017-07-12T11:54:39.727Z,79.50
2017-07-12T11:57:07.956Z,79.40
2017-07-12T11:59:36.310Z,79.80
2017-07-12T12:02:05.313Z,80.10
2017-07-12T12:04:33.524Z,80.10
2017-07-12T12:07:01.734Z,80.10
2017-07-12T12:09:30.026Z,79.70
2017-07-12T12:11:59.034Z,78.80
2017-07-12T12:14:27.240Z,78.70
2017-07-12T12:16:55.460Z,79.40
2017-07-12T12:19:23.669Z,79.70
2017-07-12T12:21:51.878Z,79.30
2017-07-12T12:24:20.111Z,77.70
2017-07-12T12:26:49.084Z,76.10
2017-07-12T12:29:17.303Z,76.10
2017-07-12T12:31:45.509Z,75.50
2017-07-12T12:34:13.710Z,74.50
2017-07-12T12:36:41.928Z,74.00
2017-07-12T12:39:10.162Z,72.60
2017-07-12T12:41:38.685Z,75.00
2017-07-12T12:44:07.027Z,74.70
2017-07-12T12:46:35.199Z,75.00
2017-07-12T12:49:03.424Z,73.90
2017-07-12T12:51:31.630Z,74.60
2017-07-12T12:53:59.837Z,74.80
2017-07-12T12:56:28.993Z,75.80
2017-07-12T12:58:57.191Z,75.10
2017-07-12T13:01:26.202Z,75.00
2017-07-12T13:03:55.035Z,74.90
2017-07-12T13:06:23.231Z,75.90
2017-07-12T13:08:51.470Z,74.70
2017-07-12T13:11:19.670Z,72.40
2017-07-12T13:13:48.127Z,72.20
2017-07-12T13:16:16.340Z,71.50
2017-07-12T13:18:44.539Z,73.00
2017-07-12T13:21:12.752Z,71.90
2017-07-12T13:23:41.109Z,69.70
2017-07-12T13:26:09.292Z,70.10
2017-07-12T13:28:38.283Z,71.60
2017-07-12T13:31:06.502Z,71.60
2017-07-12T13:33:34.775Z,70.70
2017-07-12T13:36:03.017Z,67.30
2017-07-12T13:38:31.309Z,66.60
2017-07-12T13:40:59.597Z,66.50
2017-07-12T13:43:27.839Z,66.90
2017-07-12T13:45:56.036Z,68.20
2017-07-12T13:48:24.249Z,66.00
2017-07-12T13:50:52.471Z,68.00
2017-07-12T13:53:20.759Z,67.40
2017-07-12T13:55:49.725Z,66.90
2017-07-12T13:58:17.942Z,66.10
2017-07-12T14:00:46.228Z,66.80
2017-07-12T14:03:14.469Z,67.30
2017-07-12T14:05:42.675Z,66.10
2017-07-12T14:08:11.046Z,64.40
2017-07-12T14:10:39.337Z,63.60
2017-07-12T14:13:07.543Z,63.10
2017-07-12T14:15:35.874Z,63.80
2017-07-12T14:18:04.862Z,66.20
2017-07-12T14:20:33.093Z,66.10
2017-07-12T14:23:01.293Z,63.90
2017-07-12T14:25:29.922Z,64.00
2017-07-12T14:27:58.123Z,64.30
2017-07-12T14:30:26.543Z,65.20
2017-07-12T14:32:54.760Z,64.60
2017-07-12T14:35:22.979Z,65.00
2017-07-12T14:37:51.230Z,66.20
2017-07-12T14:40:19.399Z,66.50
2017-07-12T14:42:47.620Z,65.20
2017-07-12T14:45:16.029Z,66.20
2017-07-12T14:47:44.265Z,66.50
2017-07-12T14:50:12.555Z,64.70
2017-07-12T14:52:40.760Z,64.80
2017-07-12T14:55:08.983Z,64.00
2017-07-12T14:57:37.249Z,63.10
2017-07-12T15:00:05.518Z,63.80
2017-07-12T15:02:33.766Z,64.70
2017-07-12T15:05:02.064Z,71.30
2017-07-12T15:07:30.207Z,72.70
2017-07-12T15:09:58.402Z,74.40
2017-07-12T15:12:26.624Z,72.30
2017-07-12T15:14:54.831Z,76.20
2017-07-12T15:17:23.228Z,78.30
2017-07-12T15:19:52.330Z,78.70
2017-07-12T15:22:20.547Z,78.60
2017-07-12T15:24:48.768Z,80.50
2017-07-12T15:27:17.018Z,79.50
2017-07-12T15:29:45.326Z,78.50
2017-07-12T15:32:13.533Z,76.20
2017-07-12T15:34:41.802Z,75.90
2017-07-12T15:37:10.001Z,75.80
2017-07-12T15:39:38.217Z,75.80
2017-07-12T15:42:06.415Z,73.50
2017-07-12T15:44:34.631Z,74.70
2017-07-12T15:47:03.051Z,72.50
2017-07-12T15:49:31.235Z,75.30
2017-07-12T15:52:00.214Z,73.60
2017-07-12T15:54:28.423Z,73.50
2017-07-12T15:56:57.420Z,72.10
2017-07-12T15:59:25.634Z,72.20
2017-07-12T16:01:53.838Z,72.20
2017-07-12T16:04:22.047Z,71.20
2017-07-12T16:06:50.265Z,71.50
2017-07-12T16:09:18.693Z,70.90
2017-07-12T16:11:47.665Z,68.90
2017-07-12T16:14:15.945Z,69.00
2017-07-12T16:16:44.126Z,68.90
2017-07-12T16:19:13.102Z,70.20
2017-07-12T16:21:41.369Z,69.40
2017-07-12T16:24:09.567Z,69.50
2017-07-12T16:26:37.777Z,68.40
2017-07-12T16:29:05.992Z,68.80
2017-07-12T16:31:34.220Z,70.10
2017-07-12T16:34:04.145Z,69.30
2017-07-12T16:36:32.443Z,69.30
2017-07-12T16:39:00.655Z,68.40
2017-07-12T16:41:28.896Z,69.00
2017-07-12T16:43:57.192Z,69.80
2017-07-12T16:46:25.447Z,68.60
2017-07-12T16:48:53.687Z,68.20
2017-07-12T16:51:21.895Z,65.50
2017-07-12T16:53:50.091Z,66.30
2017-07-12T16:56:18.312Z,66.00
2017-07-12T16:58:46.522Z,67.60
2017-07-12T17:01:14.743Z,66.10
2017-07-12T17:03:42.958Z,67.20
2017-07-12T17:06:11.934Z,68.60
2017-07-12T17:08:40.232Z,68.40
2017-07-12T17:11:08.448Z,66.80
2017-07-12T17:13:36.666Z,65.90
2017-07-12T17:16:04.873Z,66.50
2017-07-12T17:18:33.084Z,65.20
2017-07-12T17:21:01.310Z,65.10
2017-07-12T17:23:29.529Z,66.10
2017-07-12T17:25:57.759Z,65.50
2017-07-12T17:28:26.043Z,67.00
2017-07-12T17:30:55.006Z,67.00
2017-07-12T17:33:23.242Z,66.90
2017-07-12T17:35:51.494Z,67.10
2017-07-12T17:38:19.710Z,66.40
2017-07-12T17:40:47.921Z,66.70
2017-07-12T17:43:16.323Z,67.60
2017-07-12T17:45:44.597Z,69.10
2017-07-12T17:48:12.797Z,70.30
2017-07-12T17:50:41.046Z,69.90
2017-07-12T17:53:09.445Z,68.60
2017-07-12T17:55:37.661Z,69.50
2017-07-12T17:58:05.884Z,68.70
2017-07-12T18:00:34.088Z,71.70
2017-07-12T18:03:02.295Z,70.40
2017-07-12T18:05:30.516Z,71.20
2017-07-12T18:07:58.826Z,72.30
2017-07-12T18:10:27.064Z,71.50
2017-07-12T18:12:55.259Z,72.30
2017-07-12T18:15:23.478Z,72.40
2017-07-12T18:17:51.995Z,71.90
2017-07-12T18:20:20.970Z,74.60
2017-07-12T18:22:49.211Z,74.60
2017-07-12T18:25:17.438Z,74.60
2017-07-12T18:27:46.418Z,72.50
2017-07-12T18:30:14.627Z,72.30
2017-07-12T18:32:42.930Z,72.50
2017-07-12T18:35:11.138Z,74.00
2017-07-12T18:37:39.349Z,74.00
2017-07-12T18:40:07.553Z,73.40
2017-07-12T18:42:35.766Z,74.40
2017-07-12T18:45:04.028Z,74.60
2017-07-12T18:47:32.211Z,74.00
2017-07-12T18:50:00.424Z,75.10
2017-07-12T18:52:29.427Z,74.90
2017-07-12T18:54:57.631Z,74.90
2017-07-12T18:57:25.855Z,75.00
2017-07-12T18:59:54.173Z,76.00
2017-07-12T19:02:22.431Z,76.10
2017-07-12T19:04:50.654Z,75.00
2017-07-12T19:07:18.976Z,75.30
2017-07-12T19:09:47.962Z,75.60
2017-07-12T19:12:16.177Z,75.60
2017-07-12T19:14:44.459Z,76.70
2017-07-12T19:17:12.711Z,74.40
2017-07-12T19:19:41.689Z,73.40
2017-07-12T19:22:09.906Z,73.40
2017-07-12T19:24:38.135Z,75.40
2017-07-12T19:27:07.121Z,77.20
2017-07-12T19:29:35.324Z,77.10
2017-07-12T19:32:03.550Z,74.30
2017-07-12T19:34:31.920Z,76.60
2017-07-12T19:37:00.109Z,76.80
2017-07-12T19:39:28.322Z,77.60
2017-07-12T19:41:57.364Z,74.20
2017-07-12T19:44:25.584Z,74.20
2017-07-12T19:46:53.800Z,75.50
2017-07-12T19:49:22.003Z,76.50
2017-07-12T19:51:50.218Z,76.70
2017-07-12T19:54:18.422Z,75.90
2017-07-12T19:56:46.675Z,76.20
2017-07-12T19:59:15.018Z,76.70
2017-07-12T20:01:43.235Z,75.70
2017-07-12T20:04:12.458Z,75.50
2017-07-12T20:06:40.709Z,74.10
2017-07-12T20:09:09.192Z,73.80
2017-07-12T20:11:37.401Z,73.40
2017-07-12T20:14:05.613Z,73.10
2017-07-12T20:16:33.945Z,73.80
2017-07-12T20:19:02.145Z,72.70
2017-07-12T20:21:30.397Z,72.40
2017-07-12T20:23:58.626Z,74.30
2017-07-12T20:26:26.843Z,72.30
2017-07-12T20:28:55.061Z,73.90
2017-07-12T20:31:23.296Z,73.70
2017-07-12T20:33:51.491Z,73.10
2017-07-12T20:36:19.699Z,73.80
2017-07-12T20:38:47.980Z,73.70
2017-07-12T20:41:16.182Z,73.80
2017-07-12T20:43:44.479Z,73.80
2017-07-12T20:46:12.683Z,73.80
2017-07-12T20:48:40.910Z,74.00
2017-07-12T20:51:09.901Z,75.30
2017-07-12T20:53:38.200Z,75.30
2017-07-12T20:56:06.432Z,74.00
2017-07-12T20:58:34.639Z,73.40
2017-07-12T21:01:02.874Z,73.60
2017-07-12T21:03:31.096Z,74.90
2017-07-12T21:05:59.293Z,75.50
2017-07-12T21:08:27.532Z,75.30
2017-07-12T21:10:55.775Z,76.60
2017-07-12T21:13:24.427Z,76.90
2017-07-12T21:15:53.518Z,76.70
2017-07-12T21:18:21.729Z,76.60
2017-07-12T21:20:49.996Z,76.70
2017-07-12T21:23:18.223Z,76.20
2017-07-12T21:25:46.498Z,75.80
2017-07-12T21:28:14.692Z,75.90
2017-07-12T21:30:43.672Z,77.40
2017-07-12T21:33:11.906Z,76.90
2017-07-12T21:35:40.151Z,76.60
2017-07-12T21:38:09.129Z,78.60
2017-07-12T21:40:37.366Z,78.60
2017-07-12T21:43:05.589Z,79.10
2017-07-12T21:45:34.580Z,79.70
2017-07-12T21:48:02.813Z,80.20
2017-07-12T21:50:31.072Z,80.50
2017-07-12T21:52:59.281Z,80.90
2017-07-12T21:55:44.941Z,81.20
2017-07-12T21:58:36.793Z,81.30
2017-07-12T22:01:28.662Z,81.50
2017-07-12T22:04:20.379Z,81.60
2017-07-12T22:07:12.731Z,82.60
2017-07-12T22:10:04.535Z,82.60
2017-07-12T22:12:56.418Z,83.00
2017-07-12T22:15:48.302Z,83.40
2017-07-12T22:18:40.074Z,83.90
2017-07-12T22:21:31.993Z,84.00
2017-07-12T22:24:24.649Z,83.80
2017-07-12T22:27:16.375Z,83.80
2017-07-12T22:30:08.200Z,84.30
2017-07-12T22:33:00.923Z,84.30
2017-07-12T22:35:52.691Z,84.30
2017-07-12T22:38:32.682Z,84.60
2017-07-12T22:41:06.465Z,84.50
2017-07-12T22:43:34.176Z,84.70
2017-07-12T22:46:02.394Z,84.80
2017-07-12T22:48:30.622Z,85.00
2017-07-12T22:50:58.837Z,85.00
2017-07-12T22:53:27.077Z,84.80
2017-07-12T22:55:55.306Z,84.70
2017-07-12T22:58:23.503Z,84.80
2017-07-12T23:00:51.863Z,84.90
2017-07-12T23:03:20.061Z,84.70
2017-07-12T23:05:48.257Z,84.70
2017-07-12T23:08:16.477Z,85.10
2017-07-12T23:10:44.686Z,85.40
2017-07-12T23:13:13.035Z,85.60
2017-07-12T23:15:41.266Z,85.70
2017-07-12T23:18:09.584Z,85.60
2017-07-12T23:20:37.790Z,85.70
2017-07-12T23:23:05.998Z,85.70
2017-07-12T23:25:34.215Z,85.70
2017-07-12T23:28:02.441Z,85.40
2017-07-12T23:30:30.663Z,85.30
2017-07-12T23:32:58.850Z,85.30
2017-07-12T23:35:27.069Z,85.50
2017-07-12T23:37:55.403Z,85.50
2017-07-12T23:40:23.607Z,85.30
2017-07-12T23:42:52.060Z,85.30
2017-07-12T23:45:20.270Z,85.40
2017-07-12T23:47:48.525Z,85.40
2017-07-12T23:50:16.741Z,85.40
2017-07-12T23:52:45.470Z,85.20
2017-07-12T23:55:13.683Z,85.30
2017-07-12T23:57:41.903Z,85.10
